Marine Blue — 3ECO4 — position and weather

sailwx.info

Track history (hours):
 
Tides and Currents Weather Stations Pressure Air Temp Water Temp Dewpoint Dewpoint Depression Visibility Wind Speed Wind Dir Waves Ship Positions

Marine Blue

Last reported at 2014-Dec-29 05:33 UTC. Time now 2015-Jan-31 22:41 UTC.
Position N 34°06' E 134°57'.
Warning: this ship's position is 33 days out of date.

Length 125 m; draft 7.2 m.

Type: Cargo ship. MMSI: 371414000.

Date/timePositionNaut miles runAvg speedWind from/ knotsBaromVisibWave heightAir tempDewpointWater temp
2014-Dec-29 05:33N 34°06' E 134°57'1311.9
2014-Dec-29 04:26N 34°19' E 134°59'1011.0
2014-Dec-29 03:33N 34°26' E 135°07'1111.3
2014-Dec-29 02:33N 34°35' E 135°15'5 5.1
2014-Dec-29 01:30N 34°40' E 135°13'0 0.0
2014-Dec-29 00:30N 34°40' E 135°13'0 0.0
2014-Dec-28 23:30N 34°40' E 135°13'0 0.0
2014-Dec-28 22:30N 34°40' E 135°13'0 0.0
2014-Dec-28 21:30N 34°40' E 135°13'0 0.0
2014-Dec-28 20:12N 34°40' E 135°13'0 0.0
2014-Dec-28 19:30N 34°40' E 135°13'0 0.0
2014-Dec-28 18:30N 34°40' E 135°13'0 0.0
2014-Dec-28 17:30N 34°40' E 135°13'0 0.0
2014-Dec-28 16:30N 34°40' E 135°13'0 0.0
2014-Dec-28 15:24N 34°40' E 135°13'0 0.0
2014-Dec-28 14:24N 34°40' E 135°13'0 0.0
2014-Dec-28 13:30N 34°40' E 135°13'0 0.0
2014-Dec-28 12:30N 34°40' E 135°13'0 0.0
2014-Dec-28 11:30N 34°40' E 135°13'0 0.0
2014-Dec-28 10:30N 34°40' E 135°13'0 0.0
2014-Dec-28 09:30N 34°40' E 135°13'0 0.0
2014-Dec-28 08:24N 34°40' E 135°13'0 0.0
2014-Dec-28 07:30N 34°40' E 135°13'0 0.0
2014-Dec-28 06:30N 34°40' E 135°13'0 0.0
2014-Dec-28 05:18N 34°40' E 135°13'0 0.0
2014-Dec-28 04:30N 34°40' E 135°13'0 0.0
2014-Dec-28 03:23N 34°40' E 135°13'0 0.0
2014-Dec-28 02:23N 34°40' E 135°13'0 0.0
2014-Dec-28 01:29N 34°40' E 135°13'0 0.0
2014-Dec-28 00:29N 34°40' E 135°13'0 0.0
2014-Dec-27 23:23N 34°40' E 135°13'0 0.0
2014-Dec-27 22:17N 34°40' E 135°13'0 0.0
2014-Dec-27 21:29N 34°40' E 135°13'0 0.0
2014-Dec-27 20:29N 34°40' E 135°13'0 0.0
2014-Dec-27 19:29N 34°40' E 135°13'0 0.0
2014-Dec-27 18:29N 34°40' E 135°13'0 0.0
2014-Dec-27 17:29N 34°40' E 135°13'0 0.0
2014-Dec-27 16:29N 34°40' E 135°13'0 0.0
2014-Dec-27 15:29N 34°40' E 135°13'0 0.0
2014-Dec-27 14:29N 34°40' E 135°13'0 0.0
2014-Dec-27 13:23N 34°40' E 135°13'0 0.0
2014-Dec-27 12:29N 34°40' E 135°13'0 0.0
2014-Dec-27 11:29N 34°40' E 135°13'0 0.0
2014-Dec-27 10:29N 34°40' E 135°13'0 0.0
2014-Dec-27 09:29N 34°40' E 135°13'0 0.0
2014-Dec-27 08:29N 34°40' E 135°13'0 0.0
2014-Dec-27 07:29N 34°40' E 135°13'0 0.0
2014-Dec-27 06:29N 34°40' E 135°13'0 0.0
2014-Dec-27 05:29N 34°40' E 135°13'0 0.0
2014-Dec-27 04:29N 34°40' E 135°13'0 0.0
2014-Dec-27 03:23N 34°40' E 135°13'0 0.0
2014-Dec-27 02:29N 34°40' E 135°13'0 0.0
2014-Dec-27 01:29N 34°40' E 135°13'4 3.9
2014-Dec-27 00:33N 34°37' E 135°16'1111.5
2014-Dec-26 23:33N 34°36' E 135°02'1512.6
2014-Dec-26 22:21N 34°32' E 134°45'911.0
2014-Dec-26 21:33N 34°40' E 134°46'  
2014-Dec-22 22:17N 34°42' E 134°48'2 2.5
2014-Dec-22 21:29N 34°40' E 134°47'0 0.0
2014-Dec-22 20:29N 34°40' E 134°47'0 0.0
2014-Dec-22 19:29N 34°40' E 134°47'0 0.1
2014-Dec-22 18:29N 34°40' E 134°47'0 0.1
2014-Dec-22 17:17N 34°40' E 134°47'0 0.0
2014-Dec-22 16:29N 34°40' E 134°47'0 0.0
2014-Dec-22 15:29N 34°40' E 134°47'0 0.0
2014-Dec-22 14:29N 34°40' E 134°47'0 0.0
2014-Dec-22 13:05N 34°40' E 134°47'0 0.0
2014-Dec-22 12:29N 34°40' E 134°47'0 0.0
2014-Dec-22 11:23N 34°40' E 134°47'1 1.8
2014-Dec-22 10:33N 34°39' E 134°48'1111.1
2014-Dec-22 09:33N 34°37' E 135°01'1010.6
2014-Dec-22 08:34N 34°36' E 135°14'6 5.4
2014-Dec-22 07:29N 34°42' E 135°15'0 0.0
2014-Dec-22 06:29N 34°42' E 135°15'0 0.0
2014-Dec-22 05:29N 34°42' E 135°15'0 0.0
2014-Dec-22 04:29N 34°42' E 135°15'0 0.0
2014-Dec-22 03:23N 34°42' E 135°15'0 0.0
2014-Dec-22 02:11N 34°42' E 135°15'0 0.0
2014-Dec-22 01:23N 34°42' E 135°15'0 0.0
2014-Dec-22 00:29N 34°42' E 135°15'0 0.0
2014-Dec-21 23:29N 34°42' E 135°15'0 0.0
2014-Dec-21 22:29N 34°42' E 135°15'0 0.0
2014-Dec-21 21:23N 34°42' E 135°15'0 0.0
2014-Dec-21 20:29N 34°42' E 135°15'0 0.0
2014-Dec-21 19:29N 34°42' E 135°15'0 0.0
2014-Dec-21 18:29N 34°42' E 135°15'0 0.0
2014-Dec-21 17:29N 34°42' E 135°15'0 0.0
2014-Dec-21 16:29N 34°42' E 135°15'0 0.0
2014-Dec-21 15:29N 34°42' E 135°15'0 0.0
2014-Dec-21 14:29N 34°42' E 135°15'0 0.0
2014-Dec-21 13:29N 34°42' E 135°15'0 0.0
2014-Dec-21 12:29N 34°42' E 135°15'0 0.0
2014-Dec-21 11:29N 34°42' E 135°15'0 0.0
2014-Dec-21 10:29N 34°42' E 135°15'0 0.0
2014-Dec-21 09:29N 34°42' E 135°15'0 0.0
2014-Dec-21 08:11N 34°42' E 135°15'0 0.0
2014-Dec-21 07:23N 34°42' E 135°15'0 0.0
2014-Dec-21 06:29N 34°42' E 135°15'0 0.0
2014-Dec-21 05:23N 34°42' E 135°15'0 0.0
2014-Dec-21 04:29N 34°42' E 135°15'0 0.0
2014-Dec-21 03:29N 34°42' E 135°15'0 0.0
2014-Dec-21 02:23N 34°42' E 135°15'0 0.1
2014-Dec-21 01:28N 34°42' E 135°15'0 0.0
2014-Dec-21 00:28N 34°42' E 135°15'0 0.0
2014-Dec-20 23:28N 34°42' E 135°15'0 0.0
2014-Dec-20 22:22N 34°42' E 135°15'0 0.0
2014-Dec-20 21:28N 34°42' E 135°15'0 0.0
2014-Dec-20 20:28N 34°42' E 135°15'0 0.0
2014-Dec-20 19:28N 34°42' E 135°15'0 0.0
2014-Dec-20 18:28N 34°42' E 135°15'0 0.0
2014-Dec-20 17:28N 34°42' E 135°15'0 0.0
2014-Dec-20 16:28N 34°42' E 135°15'0 0.0
2014-Dec-20 15:28N 34°42' E 135°15'0 0.0
2014-Dec-20 14:28N 34°42' E 135°15'0 0.0
2014-Dec-20 13:28N 34°42' E 135°15'0 0.0
2014-Dec-20 12:28N 34°42' E 135°15'0 0.0
2014-Dec-20 11:22N 34°42' E 135°15'0 0.0
2014-Dec-20 10:22N 34°42' E 135°15'0 0.0
2014-Dec-20 09:28N 34°42' E 135°15'0 0.0
2014-Dec-20 08:28N 34°42' E 135°15'0 0.0
2014-Dec-20 07:28N 34°42' E 135°15'0 0.0
2014-Dec-20 06:28N 34°42' E 135°15'0 0.0
2014-Dec-20 05:28N 34°42' E 135°15'0 0.0
2014-Dec-20 04:22N 34°42' E 135°15'0 0.0
2014-Dec-20 03:28N 34°42' E 135°15'0 0.0
2014-Dec-20 02:22N 34°42' E 135°15'0 0.1
2014-Dec-20 01:28N 34°42' E 135°15'0 0.0
2014-Dec-20 00:28N 34°42' E 135°15'0 0.0
2014-Dec-19 23:22N 34°42' E 135°15'0 0.0
2014-Dec-19 22:28N 34°42' E 135°15'0 0.0
2014-Dec-19 21:22N 34°42' E 135°15'0 0.0
2014-Dec-19 20:28N 34°42' E 135°15'0 0.0
2014-Dec-19 19:28N 34°42' E 135°15'0 0.0
2014-Dec-19 18:28N 34°42' E 135°15'0 0.0
2014-Dec-19 17:28N 34°42' E 135°15'0 0.0
2014-Dec-19 16:28N 34°42' E 135°15'0 0.0
2014-Dec-19 15:34N 34°42' E 135°15'0 0.0
2014-Dec-19 14:33N 34°42' E 135°15'0 0.0
2014-Dec-19 13:33N 34°42' E 135°15'0 0.0
2014-Dec-19 12:33N 34°42' E 135°15'0 0.0
2014-Dec-19 11:33N 34°42' E 135°15'0 0.0
2014-Dec-19 10:33N 34°42' E 135°15'0 0.0
2014-Dec-19 09:33N 34°42' E 135°15'0 0.0
2014-Dec-19 08:33N 34°42' E 135°15'0 0.0
2014-Dec-19 07:33N 34°42' E 135°15'0 0.0
2014-Dec-19 06:33N 34°42' E 135°15'0 0.0
2014-Dec-19 05:33N 34°42' E 135°15'  
Track history (hours):
 
Tides and Currents Weather Stations Pressure Air Temp Water Temp Dewpoint Dewpoint Depression Visibility Wind Speed Wind Dir Waves Ship Positions

Marine Blue

Last reported at 2014-Dec-29 05:33 UTC. Time now 2015-Jan-31 22:41 UTC.
Position N 34°06' E 134°57'.
Warning: this ship's position is 33 days out of date.

Length 125 m; draft 7.2 m.

Type: Cargo ship. MMSI: 371414000.

Date/timePositionNaut miles runAvg speedWind from/ knotsBaromVisibWave heightAir tempDewpointWater temp
2014-Dec-29 05:33N 34°06' E 134°57'1311.9
2014-Dec-29 04:26N 34°19' E 134°59'1011.0
2014-Dec-29 03:33N 34°26' E 135°07'1111.3
2014-Dec-29 02:33N 34°35' E 135°15'5 5.1
2014-Dec-29 01:30N 34°40' E 135°13'0 0.0
2014-Dec-29 00:30N 34°40' E 135°13'0 0.0
2014-Dec-28 23:30N 34°40' E 135°13'0 0.0
2014-Dec-28 22:30N 34°40' E 135°13'0 0.0
2014-Dec-28 21:30N 34°40' E 135°13'0 0.0
2014-Dec-28 20:12N 34°40' E 135°13'0 0.0
2014-Dec-28 19:30N 34°40' E 135°13'0 0.0
2014-Dec-28 18:30N 34°40' E 135°13'0 0.0
2014-Dec-28 17:30N 34°40' E 135°13'0 0.0
2014-Dec-28 16:30N 34°40' E 135°13'0 0.0
2014-Dec-28 15:24N 34°40' E 135°13'0 0.0
2014-Dec-28 14:24N 34°40' E 135°13'0 0.0
2014-Dec-28 13:30N 34°40' E 135°13'0 0.0
2014-Dec-28 12:30N 34°40' E 135°13'0 0.0
2014-Dec-28 11:30N 34°40' E 135°13'0 0.0
2014-Dec-28 10:30N 34°40' E 135°13'0 0.0
2014-Dec-28 09:30N 34°40' E 135°13'0 0.0
2014-Dec-28 08:24N 34°40' E 135°13'0 0.0
2014-Dec-28 07:30N 34°40' E 135°13'0 0.0
2014-Dec-28 06:30N 34°40' E 135°13'0 0.0
2014-Dec-28 05:18N 34°40' E 135°13'0 0.0
2014-Dec-28 04:30N 34°40' E 135°13'0 0.0
2014-Dec-28 03:23N 34°40' E 135°13'0 0.0
2014-Dec-28 02:23N 34°40' E 135°13'0 0.0
2014-Dec-28 01:29N 34°40' E 135°13'0 0.0
2014-Dec-28 00:29N 34°40' E 135°13'0 0.0
2014-Dec-27 23:23N 34°40' E 135°13'0 0.0
2014-Dec-27 22:17N 34°40' E 135°13'0 0.0
2014-Dec-27 21:29N 34°40' E 135°13'0 0.0
2014-Dec-27 20:29N 34°40' E 135°13'0 0.0
2014-Dec-27 19:29N 34°40' E 135°13'0 0.0
2014-Dec-27 18:29N 34°40' E 135°13'0 0.0
2014-Dec-27 17:29N 34°40' E 135°13'0 0.0
2014-Dec-27 16:29N 34°40' E 135°13'0 0.0
2014-Dec-27 15:29N 34°40' E 135°13'0 0.0
2014-Dec-27 14:29N 34°40' E 135°13'0 0.0
2014-Dec-27 13:23N 34°40' E 135°13'0 0.0
2014-Dec-27 12:29N 34°40' E 135°13'0 0.0
2014-Dec-27 11:29N 34°40' E 135°13'0 0.0
2014-Dec-27 10:29N 34°40' E 135°13'0 0.0
2014-Dec-27 09:29N 34°40' E 135°13'0 0.0
2014-Dec-27 08:29N 34°40' E 135°13'0 0.0
2014-Dec-27 07:29N 34°40' E 135°13'0 0.0
2014-Dec-27 06:29N 34°40' E 135°13'0 0.0
2014-Dec-27 05:29N 34°40' E 135°13'0 0.0
2014-Dec-27 04:29N 34°40' E 135°13'0 0.0
2014-Dec-27 03:23N 34°40' E 135°13'0 0.0
2014-Dec-27 02:29N 34°40' E 135°13'0 0.0
2014-Dec-27 01:29N 34°40' E 135°13'4 3.9
2014-Dec-27 00:33N 34°37' E 135°16'1111.5
2014-Dec-26 23:33N 34°36' E 135°02'1512.6
2014-Dec-26 22:21N 34°32' E 134°45'911.0
2014-Dec-26 21:33N 34°40' E 134°46'  
2014-Dec-22 22:17N 34°42' E 134°48'2 2.5
2014-Dec-22 21:29N 34°40' E 134°47'0 0.0
2014-Dec-22 20:29N 34°40' E 134°47'0 0.0
2014-Dec-22 19:29N 34°40' E 134°47'0 0.1
2014-Dec-22 18:29N 34°40' E 134°47'0 0.1
2014-Dec-22 17:17N 34°40' E 134°47'0 0.0
2014-Dec-22 16:29N 34°40' E 134°47'0 0.0
2014-Dec-22 15:29N 34°40' E 134°47'0 0.0
2014-Dec-22 14:29N 34°40' E 134°47'0 0.0
2014-Dec-22 13:05N 34°40' E 134°47'0 0.0
2014-Dec-22 12:29N 34°40' E 134°47'0 0.0
2014-Dec-22 11:23N 34°40' E 134°47'1 1.8
2014-Dec-22 10:33N 34°39' E 134°48'1111.1
2014-Dec-22 09:33N 34°37' E 135°01'1010.6
2014-Dec-22 08:34N 34°36' E 135°14'6 5.4
2014-Dec-22 07:29N 34°42' E 135°15'0 0.0
2014-Dec-22 06:29N 34°42' E 135°15'0 0.0
2014-Dec-22 05:29N 34°42' E 135°15'0 0.0
2014-Dec-22 04:29N 34°42' E 135°15'0 0.0
2014-Dec-22 03:23N 34°42' E 135°15'0 0.0
2014-Dec-22 02:11N 34°42' E 135°15'0 0.0
2014-Dec-22 01:23N 34°42' E 135°15'0 0.0
2014-Dec-22 00:29N 34°42' E 135°15'0 0.0
2014-Dec-21 23:29N 34°42' E 135°15'0 0.0
2014-Dec-21 22:29N 34°42' E 135°15'0 0.0
2014-Dec-21 21:23N 34°42' E 135°15'0 0.0
2014-Dec-21 20:29N 34°42' E 135°15'0 0.0
2014-Dec-21 19:29N 34°42' E 135°15'0 0.0
2014-Dec-21 18:29N 34°42' E 135°15'0 0.0
2014-Dec-21 17:29N 34°42' E 135°15'0 0.0
2014-Dec-21 16:29N 34°42' E 135°15'0 0.0
2014-Dec-21 15:29N 34°42' E 135°15'0 0.0
2014-Dec-21 14:29N 34°42' E 135°15'0 0.0
2014-Dec-21 13:29N 34°42' E 135°15'0 0.0
2014-Dec-21 12:29N 34°42' E 135°15'0 0.0
2014-Dec-21 11:29N 34°42' E 135°15'0 0.0
2014-Dec-21 10:29N 34°42' E 135°15'0 0.0
2014-Dec-21 09:29N 34°42' E 135°15'0 0.0
2014-Dec-21 08:11N 34°42' E 135°15'0 0.0
2014-Dec-21 07:23N 34°42' E 135°15'0 0.0
2014-Dec-21 06:29N 34°42' E 135°15'0 0.0
2014-Dec-21 05:23N 34°42' E 135°15'0 0.0
2014-Dec-21 04:29N 34°42' E 135°15'0 0.0
2014-Dec-21 03:29N 34°42' E 135°15'0 0.0
2014-Dec-21 02:23N 34°42' E 135°15'0 0.1
2014-Dec-21 01:28N 34°42' E 135°15'0 0.0
2014-Dec-21 00:28N 34°42' E 135°15'0 0.0
2014-Dec-20 23:28N 34°42' E 135°15'0 0.0
2014-Dec-20 22:22N 34°42' E 135°15'0 0.0
2014-Dec-20 21:28N 34°42' E 135°15'0 0.0
2014-Dec-20 20:28N 34°42' E 135°15'0 0.0
2014-Dec-20 19:28N 34°42' E 135°15'0 0.0
2014-Dec-20 18:28N 34°42' E 135°15'0 0.0
2014-Dec-20 17:28N 34°42' E 135°15'0 0.0
2014-Dec-20 16:28N 34°42' E 135°15'0 0.0
2014-Dec-20 15:28N 34°42' E 135°15'0 0.0
2014-Dec-20 14:28N 34°42' E 135°15'0 0.0
2014-Dec-20 13:28N 34°42' E 135°15'0 0.0
2014-Dec-20 12:28N 34°42' E 135°15'0 0.0
2014-Dec-20 11:22N 34°42' E 135°15'0 0.0
2014-Dec-20 10:22N 34°42' E 135°15'0 0.0
2014-Dec-20 09:28N 34°42' E 135°15'0 0.0
2014-Dec-20 08:28N 34°42' E 135°15'0 0.0
2014-Dec-20 07:28N 34°42' E 135°15'0 0.0
2014-Dec-20 06:28N 34°42' E 135°15'0 0.0
2014-Dec-20 05:28N 34°42' E 135°15'0 0.0
2014-Dec-20 04:22N 34°42' E 135°15'0 0.0
2014-Dec-20 03:28N 34°42' E 135°15'0 0.0
2014-Dec-20 02:22N 34°42' E 135°15'0 0.1
2014-Dec-20 01:28N 34°42' E 135°15'0 0.0
2014-Dec-20 00:28N 34°42' E 135°15'0 0.0
2014-Dec-19 23:22N 34°42' E 135°15'0 0.0
2014-Dec-19 22:28N 34°42' E 135°15'0 0.0
2014-Dec-19 21:22N 34°42' E 135°15'0 0.0
2014-Dec-19 20:28N 34°42' E 135°15'0 0.0
2014-Dec-19 19:28N 34°42' E 135°15'0 0.0
2014-Dec-19 18:28N 34°42' E 135°15'0 0.0
2014-Dec-19 17:28N 34°42' E 135°15'0 0.0
2014-Dec-19 16:28N 34°42' E 135°15'0 0.0
2014-Dec-19 15:34N 34°42' E 135°15'0 0.0
2014-Dec-19 14:33N 34°42' E 135°15'0 0.0
2014-Dec-19 13:33N 34°42' E 135°15'0 0.0
2014-Dec-19 12:33N 34°42' E 135°15'0 0.0
2014-Dec-19 11:33N 34°42' E 135°15'0 0.0
2014-Dec-19 10:33N 34°42' E 135°15'0 0.0
2014-Dec-19 09:33N 34°42' E 135°15'0 0.0
2014-Dec-19 08:33N 34°42' E 135°15'0 0.0
2014-Dec-19 07:33N 34°42' E 135°15'0 0.0
2014-Dec-19 06:33N 34°42' E 135°15'0 0.0
2014-Dec-19 05:33N 34°42' E 135°15'  

Dump ship's entire track history